createdAt,value
2022-10-07T00:01:31.395Z,101703.19
2022-10-07T00:03:58.295Z,101710.59
2022-10-07T00:06:24.936Z,101713.72
2022-10-07T00:08:52.505Z,101714.53
2022-10-07T00:11:23.980Z,101712.72
2022-10-07T00:13:53.060Z,101710.84
2022-10-07T00:16:21.269Z,101712.59
2022-10-07T00:18:51.975Z,101705.50
2022-10-07T00:21:19.775Z,101712.00
2022-10-07T00:23:47.220Z,101704.78
2022-10-07T00:26:16.055Z,101710.03
2022-10-07T00:28:43.075Z,101711.00
2022-10-07T00:31:12.739Z,101711.87
2022-10-07T00:33:40.099Z,101698.50
2022-10-07T00:36:14.976Z,101704.63
2022-10-07T00:38:41.774Z,101691.44
2022-10-07T00:41:09.413Z,101703.00
2022-10-07T00:43:36.062Z,101702.03
2022-10-07T00:46:07.622Z,101701.97
2022-10-07T00:48:36.529Z,101702.28
2022-10-07T00:51:03.448Z,101695.03
2022-10-07T00:53:31.728Z,101694.06
2022-10-07T00:56:01.937Z,101687.00
2022-10-07T00:58:33.329Z,101689.69
2022-10-07T01:00:59.993Z,101696.00
2022-10-07T01:03:26.807Z,101685.28
2022-10-07T01:05:53.495Z,101677.34
2022-10-07T01:08:21.168Z,101681.84
2022-10-07T01:11:14.286Z,101672.94
2022-10-07T01:13:59.372Z,101676.50
2022-10-07T01:16:33.054Z,101669.53
2022-10-07T01:19:04.128Z,101670.47
2022-10-07T01:21:33.959Z,101670.38
2022-10-07T01:24:00.586Z,101661.59
2022-10-07T01:26:40.353Z,101658.88
2022-10-07T01:29:21.553Z,101657.09
2022-10-07T01:32:01.269Z,101658.78
2022-10-07T01:34:28.618Z,101667.59
2022-10-07T01:36:58.549Z,101670.22
2022-10-07T01:39:29.408Z,101661.38
2022-10-07T01:41:57.030Z,101651.63
2022-10-07T01:44:26.673Z,101654.41
2022-10-07T01:46:53.432Z,101648.22
2022-10-07T01:49:20.035Z,101646.56
2022-10-07T01:51:49.512Z,101644.72
2022-10-07T01:54:41.450Z,101644.66
2022-10-07T01:57:11.120Z,101645.59
2022-10-07T01:59:51.509Z,101646.47
2022-10-07T02:02:35.591Z,101641.16
2022-10-07T02:05:21.030Z,101631.44
2022-10-07T02:07:53.769Z,101641.22
2022-10-07T02:10:38.838Z,101637.66
2022-10-07T02:13:15.520Z,101642.97
2022-10-07T02:15:53.133Z,101638.53
2022-10-07T02:18:20.643Z,101635.06
2022-10-07T02:20:49.353Z,101631.50
2022-10-07T02:23:18.327Z,101636.75
2022-10-07T02:25:47.191Z,101631.56
2022-10-07T02:28:16.368Z,101626.22
2022-10-07T02:30:45.099Z,101627.91
2022-10-07T02:33:12.549Z,101628.84
2022-10-07T02:35:48.119Z,101633.41
2022-10-07T02:38:16.524Z,101636.03
2022-10-07T02:40:49.080Z,101633.34
2022-10-07T02:43:23.554Z,101627.19
2022-10-07T02:45:55.152Z,101631.75
2022-10-07T02:48:32.941Z,101639.66
2022-10-07T02:51:02.310Z,101630.81
2022-10-07T02:53:30.036Z,101631.66
2022-10-07T02:55:57.472Z,101635.22
2022-10-07T02:58:26.750Z,101630.75
2022-10-07T03:00:58.149Z,101631.69
2022-10-07T03:03:25.849Z,101620.25
2022-10-07T03:05:52.924Z,101622.91
2022-10-07T03:08:20.281Z,101634.47
2022-10-07T03:10:46.961Z,101622.03
2022-10-07T03:13:15.721Z,101620.28
2022-10-07T03:15:43.356Z,101620.34
2022-10-07T03:18:26.737Z,101624.81
2022-10-07T03:20:55.559Z,101611.53
2022-10-07T03:23:25.771Z,101621.28
2022-10-07T03:25:53.235Z,101622.09
2022-10-07T03:28:21.035Z,101616.87
2022-10-07T03:30:48.142Z,101621.25
2022-10-07T03:33:15.261Z,101619.50
2022-10-07T03:35:42.222Z,101623.03
2022-10-07T03:38:10.035Z,101623.91
2022-10-07T03:40:37.211Z,101621.28
2022-10-07T03:43:04.541Z,101622.19
2022-10-07T03:45:31.263Z,101613.31
2022-10-07T03:47:58.790Z,101616.84
2022-10-07T03:50:26.460Z,101623.06
2022-10-07T03:52:53.051Z,101615.97
2022-10-07T03:55:20.131Z,101615.97
2022-10-07T03:57:58.566Z,101611.56
2022-10-07T04:00:26.782Z,101608.91
2022-10-07T04:02:53.595Z,101607.22
2022-10-07T04:05:21.079Z,101611.59
2022-10-07T04:07:48.596Z,101606.31
2022-10-07T04:10:17.152Z,101608.97
2022-10-07T04:12:44.401Z,101610.66
2022-10-07T04:15:14.311Z,101608.03
2022-10-07T04:17:45.174Z,101609.84
2022-10-07T04:20:13.237Z,101615.16
2022-10-07T04:22:39.884Z,101616.91
2022-10-07T04:25:25.870Z,101608.12
2022-10-07T04:27:54.155Z,101610.75
2022-10-07T04:30:21.890Z,101616.03
2022-10-07T04:32:51.390Z,101600.19
2022-10-07T04:35:18.750Z,101613.41
2022-10-07T04:37:45.781Z,101601.06
2022-10-07T04:40:12.590Z,101604.56
2022-10-07T04:42:57.932Z,101603.72
2022-10-07T04:45:24.651Z,101600.22
2022-10-07T04:47:51.670Z,101600.22
2022-10-07T04:50:18.400Z,101595.81
2022-10-07T04:52:45.188Z,101600.19
2022-10-07T04:55:12.671Z,101596.69
2022-10-07T04:57:39.312Z,101601.09
2022-10-07T05:00:06.482Z,101601.09
2022-10-07T05:02:33.135Z,101601.97
2022-10-07T05:05:00.170Z,101609.00
2022-10-07T05:07:27.011Z,101611.62
2022-10-07T05:09:53.614Z,101607.25
2022-10-07T05:12:20.271Z,101605.50
2022-10-07T05:14:46.930Z,101608.16
2022-10-07T05:17:14.109Z,101604.62
2022-10-07T05:19:41.121Z,101611.66
2022-10-07T05:22:07.823Z,101612.53
2022-10-07T05:24:34.601Z,101613.41
2022-10-07T05:27:01.276Z,101607.19
2022-10-07T05:29:27.905Z,101616.75
2022-10-07T05:31:54.592Z,101607.22
2022-10-07T05:34:21.320Z,101608.12
2022-10-07T05:36:47.995Z,101609.84
2022-10-07T05:39:15.024Z,101610.69
2022-10-07T05:41:45.663Z,101605.94
2022-10-07T05:44:13.190Z,101611.69
2022-10-07T05:46:40.625Z,101598.00
2022-10-07T05:49:07.299Z,101599.19
2022-10-07T05:51:33.901Z,101605.69
2022-10-07T05:54:00.577Z,101596.81
2022-10-07T05:56:27.305Z,101596.19
2022-10-07T05:58:54.023Z,101597.34
2022-10-07T06:01:21.641Z,101597.62
2022-10-07T06:03:52.935Z,101601.97
2022-10-07T06:06:20.003Z,101593.22
2022-10-07T06:08:47.395Z,101598.19
2022-10-07T06:11:34.560Z,101603.34
2022-10-07T06:14:01.950Z,101608.00
2022-10-07T06:16:28.814Z,101599.41
2022-10-07T06:18:56.361Z,101605.22
2022-10-07T06:21:26.828Z,101605.22
2022-10-07T06:23:57.277Z,101594.62
2022-10-07T06:26:24.351Z,101596.97
2022-10-07T06:28:51.158Z,101600.22
2022-10-07T06:31:22.750Z,101606.81
2022-10-07T06:33:50.258Z,101609.84
2022-10-07T06:36:17.698Z,101606.37
2022-10-07T06:38:45.807Z,101612.66
2022-10-07T06:41:12.490Z,101598.84
2022-10-07T06:43:39.192Z,101604.81
2022-10-07T06:46:06.809Z,101595.84
2022-10-07T06:48:34.737Z,101600.19
2022-10-07T06:51:04.901Z,101590.59
2022-10-07T06:53:32.121Z,101600.72
2022-10-07T06:56:05.161Z,101607.84
2022-10-07T06:58:32.570Z,101607.19
2022-10-07T07:01:02.493Z,101602.78
2022-10-07T07:03:29.617Z,101605.38
2022-10-07T07:05:56.711Z,101586.44
2022-10-07T07:08:24.619Z,101597.62
2022-10-07T07:10:51.363Z,101596.59
2022-10-07T07:13:18.364Z,101596.56
2022-10-07T07:15:54.066Z,101608.34
2022-10-07T07:18:20.879Z,101604.41
2022-10-07T07:20:47.641Z,101610.50
2022-10-07T07:23:14.334Z,101613.69
2022-10-07T07:25:44.482Z,101612.87
2022-10-07T07:28:12.232Z,101610.78
2022-10-07T07:30:39.628Z,101609.44
2022-10-07T07:33:06.641Z,101606.47
2022-10-07T07:35:36.721Z,101614.97
2022-10-07T07:38:22.233Z,101613.66
2022-10-07T07:40:53.684Z,101613.25
2022-10-07T07:43:20.499Z,101608.94
2022-10-07T07:45:47.270Z,101600.13
2022-10-07T07:48:14.202Z,101600.97
2022-10-07T07:50:40.889Z,101604.47
2022-10-07T07:53:07.541Z,101599.69
2022-10-07T07:55:34.151Z,101607.53
2022-10-07T07:58:01.580Z,101605.63
2022-10-07T08:00:28.220Z,101607.50
2022-10-07T08:02:54.916Z,101610.44
2022-10-07T08:05:24.168Z,101598.53
2022-10-07T08:07:52.572Z,101602.44
2022-10-07T08:10:19.211Z,101603.00
2022-10-07T08:12:46.023Z,101601.78
2022-10-07T08:15:12.721Z,101597.81
2022-10-07T08:17:39.388Z,101595.00
2022-10-07T08:20:06.386Z,101592.66
2022-10-07T08:22:33.050Z,101589.16
2022-10-07T08:25:00.451Z,101591.28
2022-10-07T08:27:28.476Z,101582.47
2022-10-07T08:29:55.210Z,101591.97
2022-10-07T08:32:21.938Z,101580.75
2022-10-07T08:34:48.640Z,101591.66
2022-10-07T08:37:15.300Z,101592.28
2022-10-07T08:39:42.049Z,101588.31
2022-10-07T08:42:15.590Z,101582.19
2022-10-07T08:44:45.378Z,101585.41
2022-10-07T08:47:16.269Z,101575.91
2022-10-07T08:50:04.109Z,101577.72
2022-10-07T08:52:34.640Z,101578.78
2022-10-07T08:55:02.541Z,101563.50
2022-10-07T08:57:38.721Z,101567.91
2022-10-07T09:00:07.439Z,101567.31
2022-10-07T09:03:00.243Z,101563.03
2022-10-07T09:05:29.986Z,101556.75
2022-10-07T09:07:58.677Z,101546.22
2022-10-07T09:10:34.766Z,101547.00
2022-10-07T09:13:05.592Z,101554.84
2022-10-07T09:15:50.988Z,101545.16
2022-10-07T09:18:23.870Z,101548.72
2022-10-07T09:20:56.828Z,101548.47
2022-10-07T09:23:25.083Z,101542.37
2022-10-07T09:25:52.182Z,101535.06
2022-10-07T09:28:19.998Z,101534.53
2022-10-07T09:30:46.722Z,101534.72
2022-10-07T09:33:18.801Z,101536.16
2022-10-07T09:35:55.050Z,101535.59
2022-10-07T09:38:36.148Z,101528.84
2022-10-07T09:41:24.296Z,101533.78
2022-10-07T09:44:04.080Z,101530.62
2022-10-07T09:46:36.946Z,101522.03
2022-10-07T09:49:04.659Z,101520.94
2022-10-07T09:51:32.690Z,101524.97
2022-10-07T09:54:02.960Z,101518.22
2022-10-07T09:56:40.458Z,101516.00
2022-10-07T09:59:17.540Z,101506.16
2022-10-07T10:02:02.058Z,101499.75
2022-10-07T10:04:39.672Z,101498.41
2022-10-07T10:07:16.893Z,101495.59
2022-10-07T10:09:50.868Z,101498.63
2022-10-07T10:12:18.540Z,101504.50
2022-10-07T10:14:55.449Z,101493.72
2022-10-07T10:17:28.875Z,101487.56
2022-10-07T10:19:56.190Z,101490.03
2022-10-07T10:22:32.412Z,101482.84
2022-10-07T10:25:17.881Z,101477.19
2022-10-07T10:27:57.441Z,101475.50
2022-10-07T10:30:24.980Z,101467.03
2022-10-07T10:32:51.690Z,101464.72
2022-10-07T10:35:21.538Z,101464.47
2022-10-07T10:38:05.633Z,101463.63
2022-10-07T10:40:32.280Z,101456.91
2022-10-07T10:43:17.628Z,101447.81
2022-10-07T10:45:51.426Z,101441.78
2022-10-07T10:48:31.941Z,101446.03
2022-10-07T10:51:10.702Z,101434.91
2022-10-07T10:53:49.280Z,101428.19
2022-10-07T10:56:32.305Z,101420.31
2022-10-07T10:59:05.187Z,101412.47
2022-10-07T11:01:40.386Z,101404.00
2022-10-07T11:04:25.780Z,101406.97
2022-10-07T11:07:00.969Z,101408.69
2022-10-07T11:09:33.908Z,101400.16
2022-10-07T11:12:03.816Z,101402.56
2022-10-07T11:14:31.975Z,101396.13
2022-10-07T11:17:05.193Z,101401.16
2022-10-07T11:19:32.183Z,101396.75
2022-10-07T11:22:00.184Z,101389.28
2022-10-07T11:24:29.894Z,101382.59
2022-10-07T11:26:59.943Z,101379.37
2022-10-07T11:29:32.695Z,101373.81
2022-10-07T11:32:05.823Z,101362.31
2022-10-07T11:34:42.374Z,101362.75
2022-10-07T11:37:19.222Z,101358.94
2022-10-07T11:39:46.491Z,101346.53
2022-10-07T11:42:13.141Z,101348.81
2022-10-07T11:44:52.376Z,101351.16
2022-10-07T11:47:21.531Z,101335.81
2022-10-07T11:49:58.110Z,101332.91
2022-10-07T11:52:27.150Z,101329.97
2022-10-07T11:55:23.229Z,101313.47
2022-10-07T11:57:54.410Z,101314.38
2022-10-07T12:00:24.269Z,101308.16
2022-10-07T12:02:51.847Z,101299.38
2022-10-07T12:05:35.370Z,101300.94
2022-10-07T12:08:03.409Z,101302.00
2022-10-07T12:10:31.313Z,101296.34
2022-10-07T12:12:59.654Z,101290.78
2022-10-07T12:15:39.051Z,101281.03
2022-10-07T12:18:05.762Z,101280.91
2022-10-07T12:20:35.590Z,101280.44
2022-10-07T12:23:21.163Z,101264.59
2022-10-07T12:25:50.972Z,101266.84
2022-10-07T12:28:24.433Z,101269.88
2022-10-07T12:30:55.630Z,101268.47
2022-10-07T12:33:29.119Z,101260.37
2022-10-07T12:35:56.339Z,101256.84
2022-10-07T12:38:27.315Z,101257.00
2022-10-07T12:41:00.110Z,101251.53
2022-10-07T12:43:38.633Z,101245.16
2022-10-07T12:46:13.573Z,101237.47
2022-10-07T12:48:44.191Z,101238.16
2022-10-07T12:51:19.722Z,101230.37
2022-10-07T12:53:47.912Z,101232.53
2022-10-07T12:56:23.074Z,101226.37
2022-10-07T12:59:39.980Z,101221.06
2022-10-07T13:02:25.398Z,101223.06
2022-10-07T13:04:52.303Z,101224.38
2022-10-07T13:07:34.458Z,101218.94
2022-10-07T13:10:07.400Z,101217.19
2022-10-07T13:12:34.371Z,101205.22
2022-10-07T13:15:07.822Z,101198.16
2022-10-07T13:17:45.182Z,101201.03
2022-10-07T13:20:24.281Z,101194.94
2022-10-07T13:22:51.100Z,101193.84
2022-10-07T13:25:19.797Z,101192.38
2022-10-07T13:27:49.850Z,101191.81
2022-10-07T13:30:33.663Z,101188.03
2022-10-07T13:33:21.158Z,101189.97
2022-10-07T13:35:48.291Z,101181.34
2022-10-07T13:38:22.231Z,101177.16
2022-10-07T13:40:59.204Z,101173.59
2022-10-07T13:43:27.809Z,101170.56
2022-10-07T13:45:54.899Z,101172.09
2022-10-07T13:48:23.773Z,101173.31
2022-10-07T13:50:51.851Z,101173.69
2022-10-07T13:53:21.956Z,101165.06
2022-10-07T13:55:48.921Z,101158.03
2022-10-07T13:58:16.011Z,101152.44
2022-10-07T14:00:44.953Z,101159.28
2022-10-07T14:03:15.870Z,101156.00
2022-10-07T14:05:49.724Z,101152.94
2022-10-07T14:08:21.659Z,101144.31
2022-10-07T14:10:51.556Z,101137.78
2022-10-07T14:13:18.480Z,101147.22
2022-10-07T14:15:54.551Z,101138.72
2022-10-07T14:18:21.530Z,101130.25
2022-10-07T14:20:48.397Z,101136.09
2022-10-07T14:23:34.750Z,101123.97
2022-10-07T14:26:05.926Z,101118.81
2022-10-07T14:28:33.917Z,101122.41
2022-10-07T14:31:25.674Z,101127.50
2022-10-07T14:34:17.618Z,101118.84
2022-10-07T14:37:19.742Z,101126.09
2022-10-07T14:39:48.186Z,101122.81
2022-10-07T14:42:36.472Z,101108.75
2022-10-07T14:45:04.943Z,101106.88
2022-10-07T14:47:31.740Z,101107.59
2022-10-07T14:50:01.863Z,101100.44
2022-10-07T14:52:29.985Z,101098.78
2022-10-07T14:55:01.121Z,101096.88
2022-10-07T14:57:27.874Z,101093.44
2022-10-07T14:59:55.009Z,101090.78
2022-10-07T15:02:22.334Z,101097.91
2022-10-07T15:04:49.618Z,101093.91
2022-10-07T15:07:16.866Z,101091.56
2022-10-07T15:09:44.533Z,101093.50
2022-10-07T15:12:11.809Z,101089.09
2022-10-07T15:14:38.474Z,101086.62
2022-10-07T15:17:06.270Z,101084.69
2022-10-07T15:19:33.423Z,101076.28
2022-10-07T15:22:00.375Z,101074.94
2022-10-07T15:24:30.356Z,101078.03
2022-10-07T15:26:57.055Z,101072.47
2022-10-07T15:29:23.943Z,101075.81
2022-10-07T15:31:52.290Z,101080.00
2022-10-07T15:34:19.130Z,101077.41
2022-10-07T15:36:46.970Z,101076.06
2022-10-07T15:39:13.551Z,101082.34
2022-10-07T15:41:41.495Z,101080.25
2022-10-07T15:44:14.420Z,101085.16
2022-10-07T15:46:41.131Z,101079.38
2022-10-07T15:49:08.296Z,101084.13
2022-10-07T15:51:36.510Z,101087.69
2022-10-07T15:54:03.853Z,101084.78
2022-10-07T15:56:30.696Z,101080.63
2022-10-07T15:58:58.946Z,101076.09
2022-10-07T16:01:32.016Z,101076.50
2022-10-07T16:03:59.851Z,101073.34
2022-10-07T16:06:27.469Z,101076.56
2022-10-07T16:08:55.210Z,101077.94
2022-10-07T16:11:22.411Z,101079.22
2022-10-07T16:13:49.216Z,101081.91
2022-10-07T16:16:23.691Z,101075.69
2022-10-07T16:18:51.210Z,101085.03
2022-10-07T16:21:22.134Z,101079.00
2022-10-07T16:23:49.976Z,101080.91
2022-10-07T16:26:18.590Z,101080.03
2022-10-07T16:29:05.809Z,101080.31
2022-10-07T16:31:35.309Z,101076.84
2022-10-07T16:34:03.655Z,101076.94
2022-10-07T16:36:30.589Z,101069.91
2022-10-07T16:38:59.868Z,101081.37
2022-10-07T16:41:26.696Z,101079.00
2022-10-07T16:43:53.353Z,101072.16
2022-10-07T16:46:21.098Z,101083.75
2022-10-07T16:48:48.831Z,101076.00
2022-10-07T16:51:19.576Z,101086.47
2022-10-07T16:53:47.040Z,101081.00
2022-10-07T16:56:13.781Z,101078.56
2022-10-07T16:58:40.544Z,101083.25
2022-10-07T17:01:12.080Z,101087.87
2022-10-07T17:03:39.924Z,101089.34
2022-10-07T17:06:10.061Z,101097.69
2022-10-07T17:08:41.942Z,101090.38
2022-10-07T17:11:14.412Z,101091.19
2022-10-07T17:13:41.131Z,101086.31
2022-10-07T17:16:09.066Z,101081.78
2022-10-07T17:18:35.912Z,101094.22
2022-10-07T17:21:02.531Z,101089.22
2022-10-07T17:23:33.212Z,101084.63
2022-10-07T17:26:04.180Z,101077.00
2022-10-07T17:28:30.863Z,101080.94
2022-10-07T17:31:03.250Z,101081.13
2022-10-07T17:33:30.571Z,101072.97
2022-10-07T17:36:00.788Z,101076.03
2022-10-07T17:38:31.610Z,101076.22
2022-10-07T17:40:58.290Z,101077.75
2022-10-07T17:43:24.938Z,101074.91
2022-10-07T17:45:51.729Z,101087.81
2022-10-07T17:48:18.376Z,101074.31
2022-10-07T17:50:45.009Z,101071.28
2022-10-07T17:53:11.791Z,101080.19
2022-10-07T17:55:38.511Z,101077.31
2022-10-07T17:58:05.169Z,101069.75
2022-10-07T18:00:32.400Z,101080.59
2022-10-07T18:02:59.271Z,101066.63
2022-10-07T18:05:26.640Z,101068.31
2022-10-07T18:07:53.709Z,101072.00
2022-10-07T18:10:20.615Z,101075.53
2022-10-07T18:13:05.691Z,101066.25
2022-10-07T18:15:32.412Z,101059.12
2022-10-07T18:17:59.091Z,101060.56
2022-10-07T18:20:26.683Z,101061.16
2022-10-07T18:22:54.778Z,101051.25
2022-10-07T18:25:21.692Z,101059.22
2022-10-07T18:27:48.833Z,101054.25
2022-10-07T18:30:15.822Z,101055.19
2022-10-07T18:32:42.810Z,101053.00
2022-10-07T18:35:09.658Z,101048.41
2022-10-07T18:37:37.592Z,101052.72
2022-10-07T18:40:04.550Z,101047.44
2022-10-07T18:42:31.230Z,101044.34
2022-10-07T18:44:58.055Z,101043.81
2022-10-07T18:47:25.016Z,101036.91
2022-10-07T18:49:52.234Z,101031.09
2022-10-07T18:52:19.050Z,101032.56
2022-10-07T18:54:45.787Z,101036.28
2022-10-07T18:57:12.463Z,101041.09
2022-10-07T18:59:39.191Z,101035.88
2022-10-07T19:02:05.922Z,101034.91
2022-10-07T19:04:34.811Z,101043.75
2022-10-07T19:07:01.750Z,101029.22
2022-10-07T19:09:28.971Z,101037.34
2022-10-07T19:11:55.661Z,101036.91
2022-10-07T19:14:26.122Z,101035.03
2022-10-07T19:16:54.131Z,101034.13
2022-10-07T19:19:22.262Z,101037.66
2022-10-07T19:21:51.221Z,101033.50
2022-10-07T19:24:18.451Z,101036.81
2022-10-07T19:26:46.151Z,101039.34
2022-10-07T19:29:15.686Z,101049.44
2022-10-07T19:31:47.022Z,101047.16
2022-10-07T19:34:15.145Z,101044.31
2022-10-07T19:36:42.699Z,101050.97
2022-10-07T19:39:10.877Z,101054.44
2022-10-07T19:41:37.908Z,101046.31
2022-10-07T19:44:05.230Z,101049.03
2022-10-07T19:46:33.622Z,101056.59
2022-10-07T19:49:01.691Z,101055.91
2022-10-07T19:51:30.476Z,101054.59
2022-10-07T19:53:57.952Z,101048.69
2022-10-07T19:56:29.039Z,101051.97
2022-10-07T19:58:56.833Z,101046.66
2022-10-07T20:01:25.155Z,101035.56
2022-10-07T20:03:57.920Z,101034.25
2022-10-07T20:06:25.399Z,101034.22
2022-10-07T20:08:52.456Z,101039.22
2022-10-07T20:11:19.175Z,101039.50
2022-10-07T20:13:45.896Z,101040.97
2022-10-07T20:16:19.177Z,101038.59
2022-10-07T20:18:47.335Z,101038.31
2022-10-07T20:21:19.383Z,101033.19
2022-10-07T20:23:47.179Z,101035.16
2022-10-07T20:26:19.233Z,101040.59
2022-10-07T20:28:47.792Z,101037.19
2022-10-07T20:31:15.531Z,101044.97
2022-10-07T20:33:43.616Z,101041.78
2022-10-07T20:36:11.140Z,101035.16
2022-10-07T20:38:56.473Z,101043.56
2022-10-07T20:41:42.492Z,101040.63
2022-10-07T20:44:09.639Z,101043.44
2022-10-07T20:46:38.092Z,101036.72
2022-10-07T20:49:11.392Z,101029.59
2022-10-07T20:51:41.410Z,101033.91
2022-10-07T20:54:08.209Z,101033.81
2022-10-07T20:56:34.939Z,101030.97
2022-10-07T20:59:01.653Z,101027.81
2022-10-07T21:01:28.529Z,101037.19
2022-10-07T21:03:55.293Z,101030.13
2022-10-07T21:06:21.969Z,101034.63
2022-10-07T21:08:53.656Z,101032.25
2022-10-07T21:11:20.348Z,101039.59
2022-10-07T21:13:46.952Z,101037.28
2022-10-07T21:16:13.635Z,101038.56
2022-10-07T21:18:40.356Z,101031.25
2022-10-07T21:21:08.009Z,101041.00
2022-10-07T21:23:34.732Z,101030.09
2022-10-07T21:26:05.616Z,101029.38
2022-10-07T21:28:32.981Z,101021.19
2022-10-07T21:31:01.262Z,101019.44
2022-10-07T21:33:28.049Z,101021.81
2022-10-07T21:36:04.950Z,101026.87
2022-10-07T21:38:32.223Z,101023.72
2022-10-07T21:41:01.896Z,101022.00
2022-10-07T21:43:28.573Z,101021.25
2022-10-07T21:45:59.550Z,101021.16
2022-10-07T21:48:29.853Z,101014.31
2022-10-07T21:50:56.929Z,101013.50
2022-10-07T21:53:23.610Z,101018.94
2022-10-07T21:55:50.454Z,101020.56
2022-10-07T21:58:17.135Z,101011.31
2022-10-07T22:00:44.193Z,101013.97
2022-10-07T22:03:11.064Z,101017.03
2022-10-07T22:05:40.375Z,101000.97
2022-10-07T22:08:26.471Z,101008.44
2022-10-07T22:11:00.149Z,101003.03
2022-10-07T22:13:26.812Z,101002.19
2022-10-07T22:15:53.497Z,101007.34
2022-10-07T22:18:20.091Z,101002.81
2022-10-07T22:20:46.690Z,100994.81
2022-10-07T22:23:13.330Z,100996.44
2022-10-07T22:25:39.929Z,100995.53
2022-10-07T22:28:06.587Z,100991.94
2022-10-07T22:30:33.310Z,100994.91
2022-10-07T22:32:59.932Z,100980.09
2022-10-07T22:35:35.150Z,100978.78
2022-10-07T22:38:01.935Z,100982.34
2022-10-07T22:40:28.829Z,100976.88
2022-10-07T22:42:55.532Z,100978.88
2022-10-07T22:45:22.162Z,100974.09
2022-10-07T22:47:50.369Z,100973.78
2022-10-07T22:50:17.250Z,100967.62
2022-10-07T22:52:44.175Z,100966.75
2022-10-07T22:55:11.008Z,100965.50
2022-10-07T22:57:37.735Z,100961.72
2022-10-07T23:00:07.772Z,100961.50
2022-10-07T23:02:34.508Z,100960.25
2022-10-07T23:05:01.784Z,100948.53
2022-10-07T23:07:31.370Z,100950.25
2022-10-07T23:09:58.090Z,100948.25
2022-10-07T23:12:24.753Z,100947.31
2022-10-07T23:14:51.391Z,100946.66
2022-10-07T23:17:18.011Z,100938.72
2022-10-07T23:19:44.627Z,100939.69
2022-10-07T23:22:12.770Z,100945.63
2022-10-07T23:24:39.890Z,100945.72
2022-10-07T23:27:06.593Z,100946.06
2022-10-07T23:29:33.398Z,100942.78
2022-10-07T23:32:00.034Z,100938.00
2022-10-07T23:34:27.689Z,100943.75
2022-10-07T23:36:55.436Z,100937.34
2022-10-07T23:39:22.451Z,100933.72
2022-10-07T23:41:49.620Z,100939.00
2022-10-07T23:44:16.216Z,100934.22
2022-10-07T23:46:42.879Z,100936.69
2022-10-07T23:49:09.595Z,100931.47
2022-10-07T23:51:36.271Z,100930.28
2022-10-07T23:54:03.598Z,100925.19
2022-10-07T23:56:31.061Z,100932.16
2022-10-07T23:58:57.753Z,100920.38
